Time;durP1;ratioP1;P1;durP2;ratioP2;P2;SDS_P1;SDS_P2;PMS_P1;PMS_P2;Temp;Humidity;BMP_temperature;BMP_pressure;BME280_temperature;BME280_humidity;BME280_pressure;Samples;Min_cycle;Max_cycle;Signal;HPM_P1;HPM_P2
2021/10/27 00:01:49;;;;;;;6.87;5.23;;;;;;;8.45;100.00;97647.28;5113749;28;20175;-64
2021/10/27 00:04:14;;;;;;;7.17;5.67;;;;;;;8.41;100.00;97641.66;5113375;28;20199;-63
2021/10/27 00:06:41;;;;;;;7.83;6.10;;;;;;;8.35;100.00;97645.03;5112644;28;20188;-65
2021/10/27 00:09:06;;;;;;;7.33;6.13;;;;;;;8.34;100.00;97644.22;5114615;28;20165;-64
2021/10/27 00:11:32;;;;;;;7.53;5.67;;;;;;;8.29;100.00;97643.16;5116583;28;20183;-65
2021/10/27 00:13:58;;;;;;;6.17;5.57;;;;;;;8.31;100.00;97644.59;5116281;28;20203;-65
2021/10/27 00:16:23;;;;;;;7.77;6.10;;;;;;;8.54;100.00;97644.31;5116246;28;20164;-64
2021/10/27 00:18:49;;;;;;;7.57;6.60;;;;;;;8.31;100.00;97647.19;5098102;28;20168;-64
2021/10/27 00:21:15;;;;;;;12.30;7.40;;;;;;;8.46;100.00;97647.09;5116093;28;20168;-64
2021/10/27 00:23:40;;;;;;;10.13;6.73;;;;;;;8.39;100.00;97642.81;5116052;28;20203;-63
2021/10/27 00:26:06;;;;;;;9.40;7.10;;;;;;;8.42;100.00;97653.69;5115645;28;20200;-65
2021/10/27 00:28:31;;;;;;;11.37;7.57;;;;;;;8.38;100.00;97646.44;5116497;28;20178;-64
2021/10/27 00:30:57;;;;;;;9.73;7.33;;;;;;;8.38;100.00;97636.78;5116220;28;20664;-64
2021/10/27 00:33:22;;;;;;;8.17;7.17;;;;;;;8.29;100.00;97645.75;5115787;28;20236;-64
2021/10/27 00:35:48;;;;;;;8.07;7.00;;;;;;;7.98;100.00;97647.91;5115531;28;20180;-64
2021/10/27 00:38:14;;;;;;;10.50;7.50;;;;;;;7.91;100.00;97647.88;5116054;28;20172;-64
2021/10/27 00:40:40;;;;;;;9.13;7.57;;;;;;;8.00;100.00;97643.31;5116045;28;20267;-64
2021/10/27 00:43:05;;;;;;;9.70;6.90;;;;;;;8.13;100.00;97638.22;5113875;28;20271;-65
2021/10/27 00:45:31;;;;;;;7.67;6.37;;;;;;;8.03;100.00;97633.28;5115287;28;20211;-64
2021/10/27 00:47:56;;;;;;;9.77;7.07;;;;;;;7.97;100.00;97641.09;5115879;28;20632;-63
2021/10/27 00:50:21;;;;;;;8.40;7.03;;;;;;;7.91;100.00;97627.00;5115770;28;20275;-62
2021/10/27 00:52:47;;;;;;;8.60;6.90;;;;;;;7.81;100.00;97623.88;5115759;28;20172;-63
2021/10/27 00:55:13;;;;;;;8.50;7.00;;;;;;;7.74;100.00;97621.25;5115740;28;20196;-63
2021/10/27 00:57:39;;;;;;;7.23;6.47;;;;;;;7.68;100.00;97619.38;5115473;28;20172;-63
2021/10/27 01:00:07;;;;;;;8.90;7.10;;;;;;;7.76;100.00;97621.84;5115604;28;20176;-63
2021/10/27 01:02:32;;;;;;;8.57;6.87;;;;;;;7.70;100.00;97627.81;5115422;28;20168;-63
2021/10/27 01:04:58;;;;;;;7.80;6.47;;;;;;;7.60;100.00;97627.31;5115201;28;20235;-63
2021/10/27 01:07:24;;;;;;;8.30;6.60;;;;;;;7.59;100.00;97630.91;5115178;28;20172;-63
2021/10/27 01:09:49;;;;;;;7.77;6.77;;;;;;;7.73;100.00;97626.63;5115511;28;20190;-64
2021/10/27 01:12:15;;;;;;;9.97;6.63;;;;;;;7.60;100.00;97629.13;5115341;28;20180;-64
2021/10/27 01:14:44;;;;;;;9.20;6.60;;;;;;;7.63;100.00;97624.34;5114948;28;20198;-63
2021/10/27 01:17:11;;;;;;;9.23;6.50;;;;;;;7.61;100.00;97631.56;5115291;28;20168;-63
2021/10/27 01:20:00;;;;;;;8.13;5.50;;;;;;;7.67;100.00;97641.25;5114864;28;20179;-64
2021/10/27 01:22:30;;;;;;;8.50;6.40;;;;;;;7.77;100.00;97641.72;5115093;28;20241;-63
2021/10/27 01:24:57;;;;;;;7.63;6.53;;;;;;;7.82;100.00;97634.16;5114300;28;20272;-63
2021/10/27 01:27:24;;;;;;;10.70;6.73;;;;;;;7.74;100.00;97634.28;5115105;28;20175;-63
2021/10/27 01:29:50;;;;;;;10.50;7.57;;;;;;;7.70;100.00;97627.81;5114856;28;20351;-63
2021/10/27 01:32:26;;;;;;;12.00;7.27;;;;;;;7.68;100.00;97631.63;5114979;28;20188;-62
2021/10/27 01:34:52;;;;;;;9.83;7.37;;;;;;;7.56;100.00;97631.31;5098674;28;20544;-64
2021/10/27 01:37:18;;;;;;;9.67;7.33;;;;;;;7.61;100.00;97621.13;5114720;28;20184;-63
2021/10/27 01:39:44;;;;;;;9.07;7.47;;;;;;;7.63;100.00;97623.53;5114789;28;20211;-64
2021/10/27 01:42:10;;;;;;;10.67;7.93;;;;;;;7.80;100.00;97627.50;5114838;28;20651;-64
2021/10/27 01:44:35;;;;;;;9.43;7.33;;;;;;;7.67;100.00;97615.16;5112271;28;20228;-64
2021/10/27 01:47:01;;;;;;;8.30;7.40;;;;;;;7.76;100.00;97624.44;5096370;28;20544;-64
2021/10/27 01:49:26;;;;;;;9.07;7.27;;;;;;;7.68;100.00;97629.00;5114802;28;20176;-64
2021/10/27 01:51:52;;;;;;;13.17;7.67;;;;;;;7.64;100.00;97622.53;5096342;28;20171;-64
2021/10/27 01:54:18;;;;;;;9.27;7.23;;;;;;;7.60;100.00;97624.72;5096009;28;20207;-64
2021/10/27 01:56:43;;;;;;;7.33;6.63;;;;;;;7.67;100.00;97622.97;5114549;28;20252;-64
2021/10/27 01:59:09;;;;;;;10.00;7.30;;;;;;;7.59;100.00;97623.09;5114306;28;20273;-63
2021/10/27 02:01:34;;;;;;;9.27;7.20;;;;;;;7.69;100.00;97622.81;5114386;28;20704;-64
2021/10/27 02:03:59;;;;;;;8.43;7.43;;;;;;;7.68;100.00;97621.19;5113870;28;20304;-64
2021/10/27 02:06:25;;;;;;;7.93;7.13;;;;;;;7.52;100.00;97620.41;5114047;28;20219;-62
2021/10/27 02:08:50;;;;;;;8.57;7.47;;;;;;;7.48;100.00;97613.16;5113864;28;20176;-64
2021/10/27 02:11:16;;;;;;;10.17;7.50;;;;;;;7.41;100.00;97614.91;5114315;28;20223;-64
2021/10/27 02:13:42;;;;;;;10.27;7.30;;;;;;;7.41;100.00;97612.31;5095490;28;20195;-64
2021/10/27 02:16:08;;;;;;;8.73;6.63;;;;;;;7.38;100.00;97616.09;5095800;28;20205;-64
2021/10/27 02:18:34;;;;;;;8.33;6.63;;;;;;;7.47;100.00;97622.78;5114059;28;20175;-65
2021/10/27 02:20:59;;;;;;;8.23;6.67;;;;;;;7.41;100.00;97618.31;5113943;28;20172;-65
2021/10/27 02:23:25;;;;;;;9.20;7.33;;;;;;;7.50;100.00;97616.41;5113611;28;20217;-63
2021/10/27 02:25:50;;;;;;;9.53;7.37;;;;;;;7.45;100.00;97623.97;5113332;28;20192;-65
2021/10/27 02:28:16;;;;;;;9.07;7.13;;;;;;;7.62;100.00;97614.09;5113548;28;20534;-65
2021/10/27 02:30:41;;;;;;;11.17;7.77;;;;;;;7.65;100.00;97618.94;5113476;28;20179;-64
2021/10/27 02:33:08;;;;;;;11.77;7.80;;;;;;;7.53;100.00;97616.81;5113050;28;20176;-65
2021/10/27 02:35:33;;;;;;;11.50;7.90;;;;;;;7.40;100.00;97626.34;5113403;28;20194;-65
2021/10/27 02:37:59;;;;;;;8.47;7.47;;;;;;;7.34;100.00;97629.69;5113619;28;20180;-65
2021/10/27 02:40:24;;;;;;;11.03;7.70;;;;;;;7.41;100.00;97626.13;5114016;28;20693;-63
2021/10/27 02:42:51;;;;;;;9.90;7.93;;;;;;;7.35;100.00;97623.47;5113688;28;20180;-64
2021/10/27 02:45:17;;;;;;;9.70;7.80;;;;;;;7.33;100.00;97628.06;5092890;28;20671;-64
2021/10/27 02:47:44;;;;;;;9.53;7.63;;;;;;;7.35;100.00;97626.91;5113613;28;20179;-65
2021/10/27 02:50:12;;;;;;;10.47;8.07;;;;;;;7.34;100.00;97634.91;5113648;28;20164;-63
2021/10/27 02:52:37;;;;;;;10.43;8.37;;;;;;;7.37;100.00;97632.72;5113373;28;20191;-64
2021/10/27 02:55:03;;;;;;;12.30;7.30;;;;;;;7.31;100.00;97636.06;5113798;28;20196;-64
2021/10/27 02:57:29;;;;;;;10.07;7.47;;;;;;;7.30;100.00;97633.66;5113641;28;20179;-64
2021/10/27 02:59:54;;;;;;;9.33;7.73;;;;;;;7.28;100.00;97631.22;5113314;28;20176;-64
2021/10/27 03:02:20;;;;;;;9.43;7.07;;;;;;;7.30;100.00;97631.84;5112790;28;20172;-64
2021/10/27 03:04:45;;;;;;;10.30;7.70;;;;;;;7.26;100.00;97632.38;5112947;28;20208;-63
2021/10/27 03:07:11;;;;;;;9.00;7.53;;;;;;;7.20;100.00;97628.72;5113235;28;20172;-63
2021/10/27 03:09:36;;;;;;;13.37;8.07;;;;;;;7.27;100.00;97627.00;5109263;28;20175;-64
2021/10/27 03:12:02;;;;;;;10.30;7.90;;;;;;;7.22;100.00;97642.41;5113844;28;20168;-64
2021/10/27 03:14:28;;;;;;;12.23;8.07;;;;;;;7.23;100.00;97638.00;5113006;28;20295;-65
2021/10/27 03:16:54;;;;;;;9.27;7.73;;;;;;;7.20;100.00;97631.31;5113156;28;20248;-64
2021/10/27 03:19:20;;;;;;;10.37;7.80;;;;;;;7.20;100.00;97639.16;5113077;28;20527;-64
2021/10/27 03:21:45;;;;;;;9.73;8.10;;;;;;;7.18;100.00;97635.13;5095177;28;20267;-65
2021/10/27 03:24:11;;;;;;;10.70;7.80;;;;;;;7.21;100.00;97634.75;5112733;28;20226;-65
2021/10/27 03:26:36;;;;;;;8.73;7.77;;;;;;;7.17;100.00;97642.13;5113131;28;20188;-64
2021/10/27 03:29:02;;;;;;;8.33;7.03;;;;;;;7.36;100.00;97632.88;5094816;28;20179;-65
2021/10/27 03:31:27;;;;;;;9.40;6.73;;;;;;;7.48;100.00;97631.41;5113295;28;20640;-63
2021/10/27 03:33:53;;;;;;;8.97;6.47;;;;;;;7.43;100.00;97633.78;5113156;28;20227;-64
2021/10/27 03:36:20;;;;;;;11.20;7.80;;;;;;;7.31;100.00;97635.25;5113503;28;20699;-63
2021/10/27 03:38:45;;;;;;;10.13;7.50;;;;;;;7.25;100.00;97633.38;5113357;28;20187;-64
2021/10/27 03:41:13;;;;;;;9.87;8.37;;;;;;;7.15;100.00;97633.69;5113281;28;20640;-62
2021/10/27 03:43:38;;;;;;;9.27;7.17;;;;;;;6.88;100.00;97636.97;5111767;28;20237;-63
2021/10/27 03:46:04;;;;;;;10.30;8.10;;;;;;;6.87;100.00;97636.16;5116901;28;20188;-63
2021/10/27 03:48:29;;;;;;;10.10;7.53;;;;;;;6.83;100.00;97639.31;5116981;28;20187;-64
2021/10/27 03:50:55;;;;;;;8.03;6.43;;;;;;;6.88;100.00;97643.00;5117254;28;20266;-64
2021/10/27 03:53:20;;;;;;;7.77;6.97;;;;;;;6.89;100.00;97642.00;5116965;28;20251;-63
2021/10/27 03:55:46;;;;;;;10.57;7.77;;;;;;;7.04;100.00;97645.41;5117271;28;20179;-65
2021/10/27 03:58:12;;;;;;;10.23;7.37;;;;;;;7.02;100.00;97647.38;5117398;28;20263;-64
2021/10/27 04:00:39;;;;;;;13.43;7.93;;;;;;;7.05;100.00;97643.59;5116958;28;20180;-65
2021/10/27 04:03:06;;;;;;;9.03;8.07;;;;;;;7.14;100.00;97639.06;5116651;28;20263;-64
2021/10/27 04:05:32;;;;;;;10.77;8.13;;;;;;;6.88;100.00;97642.19;5116351;28;20276;-65
2021/10/27 04:07:58;;;;;;;10.37;8.00;;;;;;;6.79;100.00;97638.06;5097780;28;20184;-63
2021/10/27 04:10:23;;;;;;;11.07;7.90;;;;;;;6.79;100.00;97654.53;5116650;28;20525;-64
2021/10/27 04:12:49;;;;;;;16.40;8.23;;;;;;;6.79;100.00;97653.72;5098013;28;20233;-65
2021/10/27 04:15:15;;;;;;;9.93;8.20;;;;;;;6.69;100.00;97659.16;5116059;28;20199;-64
2021/10/27 04:17:41;;;;;;;10.23;7.30;;;;;;;6.67;100.00;97654.16;5116153;28;20172;-64
2021/10/27 04:20:08;;;;;;;10.30;7.90;;;;;;;6.66;100.00;97659.53;5116522;28;20230;-64
2021/10/27 04:22:37;;;;;;;14.83;8.50;;;;;;;6.71;100.00;97662.41;5116582;28;20172;-64
2021/10/27 04:25:04;;;;;;;9.50;7.97;;;;;;;6.87;100.00;97669.22;5115224;28;20203;-62
2021/10/27 04:27:29;;;;;;;10.03;8.07;;;;;;;6.57;100.00;97664.06;5116260;28;20175;-64
2021/10/27 04:29:55;;;;;;;10.10;7.30;;;;;;;6.61;100.00;97674.91;5116483;28;20168;-64
2021/10/27 04:32:20;;;;;;;9.87;7.20;;;;;;;6.47;100.00;97675.69;5116164;28;20548;-65
2021/10/27 04:34:45;;;;;;;8.27;6.27;;;;;;;6.44;100.00;97678.66;5115976;28;20211;-64
2021/10/27 04:37:11;;;;;;;6.87;5.40;;;;;;;6.28;100.00;97671.03;5115489;28;20186;-64
2021/10/27 04:39:36;;;;;;;7.03;4.90;;;;;;;6.10;100.00;97669.53;5115963;28;20590;-64
2021/10/27 04:42:03;;;;;;;7.33;4.40;;;;;;;5.95;100.00;97665.28;5115867;28;20180;-64
2021/10/27 04:44:28;;;;;;;5.60;4.83;;;;;;;5.91;100.00;97666.63;5113466;28;20289;-63
2021/10/27 04:46:54;;;;;;;7.10;5.70;;;;;;;5.95;100.00;97667.91;5115929;28;20192;-63
2021/10/27 04:49:20;;;;;;;6.83;5.83;;;;;;;5.91;100.00;97664.03;5115415;28;20176;-63
2021/10/27 04:51:45;;;;;;;6.27;5.43;;;;;;;5.81;100.00;97659.84;5115347;28;20175;-63
2021/10/27 04:54:11;;;;;;;7.73;6.47;;;;;;;6.06;100.00;97663.09;5115491;28;20564;-63
2021/10/27 04:56:36;;;;;;;9.33;7.33;;;;;;;6.19;100.00;97667.66;5115781;28;20172;-63
2021/10/27 04:59:02;;;;;;;8.47;6.93;;;;;;;6.23;100.00;97672.38;5115243;28;20753;-62
2021/10/27 05:01:27;;;;;;;11.00;7.80;;;;;;;6.01;100.00;97662.81;5115576;28;20187;-62
2021/10/27 05:03:53;;;;;;;16.93;8.80;;;;;;;6.12;100.00;97662.38;5115462;28;20196;-62
2021/10/27 05:06:19;;;;;;;11.13;8.60;;;;;;;6.20;100.00;97667.50;5115170;28;20201;-64
2021/10/27 05:08:47;;;;;;;9.63;7.33;;;;;;;6.28;100.00;97661.41;5097594;28;20549;-59
2021/10/27 05:11:13;;;;;;;9.93;7.97;;;;;;;6.15;100.00;97667.22;5096886;28;20191;-61
2021/10/27 05:13:38;;;;;;;10.03;7.47;;;;;;;6.16;100.00;97661.03;5115381;28;20199;-61
2021/10/27 05:16:04;;;;;;;9.10;7.73;;;;;;;6.05;100.00;97656.25;5115580;28;20168;-62
2021/10/27 05:18:29;;;;;;;11.80;8.23;;;;;;;6.02;100.00;97648.00;5115197;28;20633;-63
2021/10/27 05:20:55;;;;;;;13.53;8.90;;;;;;;6.11;100.00;97658.16;5115246;28;20168;-64
2021/10/27 05:23:20;;;;;;;10.80;9.27;;;;;;;6.14;100.00;97659.59;5114754;28;20263;-63
2021/10/27 05:25:46;;;;;;;15.87;9.13;;;;;;;6.25;100.00;97654.75;5114326;28;20647;-63
2021/10/27 05:28:11;;;;;;;11.13;9.13;;;;;;;6.24;100.00;97657.56;5096469;28;20176;-63
2021/10/27 05:30:37;;;;;;;12.23;9.30;;;;;;;6.24;100.00;97655.75;5114843;28;20282;-63
2021/10/27 05:33:02;;;;;;;15.73;9.47;;;;;;;6.14;100.00;97654.38;5114438;28;20535;-63
2021/10/27 05:35:29;;;;;;;12.30;9.10;;;;;;;6.05;100.00;97655.44;5114405;28;20215;-63
2021/10/27 05:37:55;;;;;;;12.77;9.80;;;;;;;6.13;100.00;97648.34;5114630;28;20187;-63
2021/10/27 05:40:22;;;;;;;13.33;10.53;;;;;;;6.16;100.00;97661.03;5114702;28;20659;-63
2021/10/27 05:42:48;;;;;;;15.17;10.20;;;;;;;6.11;100.00;97652.13;5113986;28;20184;-63
2021/10/27 05:45:15;;;;;;;16.40;11.27;;;;;;;6.11;100.00;97655.56;5111940;28;20231;-66
2021/10/27 05:47:46;;;;;;;14.60;10.23;;;;;;;6.12;100.00;97651.97;5114487;28;20180;-63
2021/10/27 05:55:37;;;;;;;13.00;9.87;;;;;;;6.13;100.00;97661.38;5114049;28;20195;-64
2021/10/27 05:58:04;;;;;;;13.33;9.93;;;;;;;6.23;100.00;97666.34;5113977;28;20180;-64
2021/10/27 06:00:31;;;;;;;11.43;9.27;;;;;;;6.12;100.00;97666.78;5113523;28;20179;-64
2021/10/27 06:02:57;;;;;;;14.67;9.60;;;;;;;6.09;100.00;97665.31;5113768;28;20574;-64
2021/10/27 06:05:22;;;;;;;12.57;8.80;;;;;;;6.03;100.00;97663.41;5113158;28;20211;-64
2021/10/27 06:07:48;;;;;;;14.30;9.23;;;;;;;6.08;100.00;97676.72;5113408;28;20176;-64
2021/10/27 06:10:19;;;;;;;11.27;9.30;;;;;;;6.11;100.00;97673.78;5113844;28;20248;-64
2021/10/27 06:12:46;;;;;;;13.00;9.37;;;;;;;6.29;100.00;97676.06;5095253;28;20199;-65
2021/10/27 06:15:11;;;;;;;12.23;8.87;;;;;;;6.40;100.00;97665.19;5113484;28;20219;-66
2021/10/27 06:17:38;;;;;;;10.87;9.03;;;;;;;6.65;100.00;97666.53;5113503;28;20603;-67
2021/10/27 06:20:04;;;;;;;13.30;9.60;;;;;;;6.60;100.00;97670.69;5112985;28;20255;-67
2021/10/27 06:22:30;;;;;;;11.17;9.17;;;;;;;6.80;100.00;97676.19;5094786;28;20172;-66
2021/10/27 06:24:56;;;;;;;12.93;9.23;;;;;;;7.04;100.00;97678.47;5094463;28;20210;-66
2021/10/27 06:27:23;;;;;;;10.67;8.70;;;;;;;7.15;100.00;97685.00;5113387;28;20168;-67
2021/10/27 06:29:56;;;;;;;10.33;8.53;;;;;;;7.30;100.00;97688.41;5112765;28;20214;-67
2021/10/27 06:34:59;;;;;;;11.47;8.43;;;;;;;7.62;100.00;97684.53;5113168;28;20302;-67
2021/10/27 06:37:45;;;;;;;9.93;8.43;;;;;;;7.66;100.00;97685.78;5113385;28;20188;-68
2021/10/27 06:48:07;;;;;;;12.97;9.73;;;;;;;8.33;100.00;97694.03;5112209;28;20651;-68
2021/10/27 06:50:33;;;;;;;10.60;7.90;;;;;;;8.53;100.00;97699.38;5111063;28;20176;-67
2021/10/27 06:52:59;;;;;;;11.80;7.80;;;;;;;8.49;100.00;97701.56;5106397;28;20240;-70
2021/10/27 06:55:25;;;;;;;10.03;7.13;;;;;;;8.56;100.00;97705.06;5112344;28;20224;-68
2021/10/27 06:57:50;;;;;;;8.47;6.97;;;;;;;8.56;100.00;97707.66;5111655;28;20176;-68
2021/10/27 07:00:34;;;;;;;9.10;6.70;;;;;;;8.60;100.00;97710.69;5112440;28;20250;-68
2021/10/27 07:16:10;;;;;;;8.90;6.87;;;;;;;8.57;95.00;97722.34;5112609;28;20697;-68
2021/10/27 07:18:35;;;;;;;11.00;6.83;;;;;;;8.67;95.14;97720.19;5115359;28;20192;-68
2021/10/27 07:21:01;;;;;;;7.07;6.27;;;;;;;8.75;95.40;97724.44;5116444;28;20279;-68
2021/10/27 07:23:27;;;;;;;7.80;6.37;;;;;;;8.80;95.36;97722.09;5097919;28;20168;-68
2021/10/27 07:25:58;;;;;;;7.97;6.40;;;;;;;9.02;95.40;97717.59;5115829;28;20192;-68
2021/10/27 07:28:28;;;;;;;8.03;6.63;;;;;;;9.01;95.16;97729.03;5116634;28;20656;-68
2021/10/27 07:30:55;;;;;;;8.70;6.03;;;;;;;8.94;94.05;97726.38;5116322;28;20264;-68
2021/10/27 07:33:21;;;;;;;8.30;6.10;;;;;;;8.76;95.54;97723.47;5116514;28;20270;-68
2021/10/27 07:35:54;;;;;;;7.27;5.97;;;;;;;9.17;93.79;97723.50;5116454;28;20642;-68
2021/10/27 07:41:06;;;;;;;5.80;5.20;;;;;;;9.61;92.09;97728.28;5115875;28;20195;-66
2021/10/27 07:43:32;;;;;;;11.90;5.93;;;;;;;9.50;92.70;97726.22;5113293;28;20235;-67
2021/10/27 07:46:00;;;;;;;6.07;5.10;;;;;;;9.74;90.96;97717.06;5116061;28;20199;-67
2021/10/27 07:48:26;;;;;;;10.03;5.87;;;;;;;9.77;90.40;97729.72;5097432;28;20610;-67
2021/10/27 07:50:52;;;;;;;8.27;5.70;;;;;;;9.83;89.31;97728.94;5115814;28;20233;-67
2021/10/27 07:53:18;;;;;;;8.83;5.63;;;;;;;10.02;88.97;97728.19;5111788;28;20172;-67
2021/10/27 07:55:46;;;;;;;7.40;5.33;;;;;;;9.78;90.15;97721.69;5115693;28;20629;-67
2021/10/27 07:58:13;;;;;;;6.93;5.40;;;;;;;9.66;90.47;97730.31;5114665;28;20187;-67
2021/10/27 08:00:40;;;;;;;9.07;5.40;;;;;;;9.92;89.64;97728.56;5115864;28;20576;-67
2021/10/27 08:03:06;;;;;;;7.17;5.57;;;;;;;10.16;88.28;97734.22;5115886;28;20187;-67
2021/10/27 08:05:40;;;;;;;5.90;5.13;;;;;;;10.23;88.17;97730.66;5115158;28;20208;-67
2021/10/27 08:08:07;;;;;;;8.80;5.07;;;;;;;10.20;87.03;97730.22;5115705;28;20229;-67
2021/10/27 08:10:33;;;;;;;5.87;4.97;;;;;;;10.27;87.24;97729.22;5115471;28;20183;-67
2021/10/27 08:12:59;;;;;;;8.97;5.30;;;;;;;10.24;87.16;97731.47;5115004;28;20171;-67
2021/10/27 08:15:26;;;;;;;5.23;4.73;;;;;;;10.15;87.95;97735.22;5115144;28;20683;-68
2021/10/27 08:17:51;;;;;;;6.97;5.10;;;;;;;10.26;87.60;97735.47;5115498;28;20183;-68
2021/10/27 08:20:19;;;;;;;5.70;5.20;;;;;;;10.37;86.66;97729.63;5115152;28;20169;-68
2021/10/27 08:22:47;;;;;;;6.23;4.97;;;;;;;10.40;86.92;97734.47;5113364;28;20259;-68
2021/10/27 08:25:20;;;;;;;6.40;4.93;;;;;;;10.26;86.82;97732.84;5096386;28;20199;-67
2021/10/27 08:27:46;;;;;;;7.33;5.10;;;;;;;10.47;86.55;97738.91;5114685;28;20199;-68
2021/10/27 08:30:13;;;;;;;7.10;5.50;;;;;;;10.80;85.01;97744.94;5114010;28;20176;-68
2021/10/27 08:32:44;;;;;;;6.13;5.17;;;;;;;10.74;85.25;97749.19;5114789;28;20168;-67
2021/10/27 08:35:14;;;;;;;6.20;4.77;;;;;;;10.65;85.69;97747.75;5114904;28;20569;-67
2021/10/27 08:37:45;;;;;;;8.60;5.47;;;;;;;10.55;86.37;97744.75;5110992;28;20555;-67
2021/10/27 08:40:11;;;;;;;7.20;5.33;;;;;;;10.90;85.53;97753.19;5115262;28;20229;-68
2021/10/27 08:42:39;;;;;;;7.90;5.50;;;;;;;10.73;86.02;97742.31;5114827;28;20222;-68
2021/10/27 08:45:05;;;;;;;8.60;5.43;;;;;;;10.60;87.00;97744.94;5112084;28;20247;-68
2021/10/27 08:47:32;;;;;;;9.67;5.43;;;;;;;10.70;86.67;97736.69;5114706;28;20187;-67
2021/10/27 08:49:59;;;;;;;7.33;4.80;;;;;;;10.78;85.92;97737.28;5114505;28;20199;-67
2021/10/27 08:52:25;;;;;;;5.53;4.90;;;;;;;11.08;84.97;97727.13;5114707;28;20171;-68
2021/10/27 08:54:50;;;;;;;6.40;4.63;;;;;;;11.27;83.53;97730.69;5095602;28;20210;-68
2021/10/27 08:57:18;;;;;;;6.30;4.60;;;;;;;11.14;84.30;97733.38;5096676;28;20183;-68
2021/10/27 09:00:12;;;;;;;5.63;4.80;;;;;;;11.14;84.66;97733.38;5114830;28;20179;-68
2021/10/27 09:05:38;;;;;;;6.13;4.97;;;;;;;11.17;85.15;97725.06;5114319;28;20268;-68
2021/10/27 09:38:41;;;;;;;8.63;5.57;;;;;;;12.20;82.26;97713.47;5114065;28;20175;-69
2021/10/27 09:55:40;;;;;;;5.50;5.00;;;;;;;12.37;81.64;97706.63;5113596;28;20210;-68
2021/10/27 10:04:08;;;;;;;8.07;5.40;;;;;;;12.43;81.87;97697.06;5105879;28;20199;-68
2021/10/27 10:06:37;;;;;;;7.40;5.93;;;;;;;12.54;81.33;97691.09;5113499;28;20192;-69
2021/10/27 10:09:04;;;;;;;6.23;5.63;;;;;;;12.46;81.45;97688.75;5095083;28;20543;-68
2021/10/27 10:11:30;;;;;;;6.80;5.47;;;;;;;12.31;82.18;97691.75;5113282;28;20203;-68
2021/10/27 10:13:56;;;;;;;7.23;5.30;;;;;;;12.35;81.99;97690.28;5113338;28;20198;-69
2021/10/27 10:16:23;;;;;;;7.00;5.43;;;;;;;12.24;83.10;97687.53;5113418;28;20565;-69
2021/10/27 10:18:50;;;;;;;7.03;4.77;;;;;;;12.38;81.54;97684.56;5113148;28;20509;-71
2021/10/27 10:21:22;;;;;;;5.50;4.73;;;;;;;12.36;81.40;97686.63;5094938;28;20249;-69
2021/10/27 10:23:49;;;;;;;7.27;5.57;;;;;;;12.59;81.35;97680.75;5112850;28;20252;-69
2021/10/27 10:26:29;;;;;;;6.40;5.17;;;;;;;12.58;81.73;97680.97;5112753;28;20199;-69
2021/10/27 10:28:54;;;;;;;6.50;5.30;;;;;;;12.58;82.38;97679.16;5112792;27;20639;-69
2021/10/27 10:31:31;;;;;;;6.50;5.13;;;;;;;12.63;81.19;97681.13;5094374;28;20179;-69
2021/10/27 10:34:01;;;;;;;7.13;5.00;;;;;;;12.62;80.44;97680.31;5110798;28;20198;-69
2021/10/27 10:36:30;;;;;;;7.20;5.13;;;;;;;12.87;78.95;97681.06;5112344;28;20175;-69
2021/10/27 10:42:03;;;;;;;5.37;4.33;;;;;;;12.74;79.78;97683.84;5111013;28;20190;-69
2021/10/27 11:02:36;;;;;;;5.10;4.57;;;;;;;13.22;77.35;97651.53;5075598;28;20553;-69
2021/10/27 11:22:21;;;;;;;5.03;3.97;;;;;;;13.46;74.74;97639.28;5112375;28;20257;-69
2021/10/27 11:48:06;;;;;;;5.20;3.97;;;;;;;13.88;71.09;97593.44;5111971;28;20172;-71
2021/10/27 11:50:37;;;;;;;5.67;3.93;;;;;;;13.95;71.76;97594.16;5112727;28;20168;-70
2021/10/27 11:53:05;;;;;;;4.27;3.20;;;;;;;13.92;70.19;97580.66;5094404;28;20176;-71
2021/10/27 11:55:33;;;;;;;3.53;2.87;;;;;;;13.61;69.78;97579.91;5111835;28;20249;-67
2021/10/27 11:57:58;;;;;;;5.53;3.60;;;;;;;13.57;70.99;97584.03;5093787;28;20183;-69
2021/10/27 12:00:36;;;;;;;3.30;2.90;;;;;;;13.55;69.76;97572.09;5111135;28;20172;-69
2021/10/27 12:03:10;;;;;;;3.50;2.40;;;;;;;13.43;68.37;97589.72;5109792;28;20167;-69
2021/10/27 12:08:35;;;;;;;3.33;3.03;;;;;;;13.21;70.86;97577.03;5112673;28;20211;-69
2021/10/27 12:19:06;;;;;;;1.10;1.10;;;;;;;13.73;64.05;97567.56;5115804;28;20175;-69
2021/10/27 12:21:34;;;;;;;3.07;2.57;;;;;;;13.74;67.05;97561.25;5087220;28;20180;-68
2021/10/27 12:24:02;;;;;;;3.10;2.30;;;;;;;13.72;64.79;97557.22;5114905;28;20571;-68
2021/10/27 12:26:28;;;;;;;2.33;1.77;;;;;;;13.60;63.05;97551.13;5115255;28;20194;-69
2021/10/27 12:29:26;;;;;;;2.00;1.70;;;;;;;13.44;63.95;97555.22;5115412;28;20510;-68
2021/10/27 12:32:06;;;;;;;3.17;2.50;;;;;;;13.59;67.06;97545.09;5111056;28;20172;-67
2021/10/27 12:34:34;;;;;;;3.43;2.63;;;;;;;13.54;68.30;97544.94;5115482;28;20336;-65
2021/10/27 12:37:17;;;;;;;2.90;2.40;;;;;;;13.81;65.45;97534.81;5115436;28;20180;-66
2021/10/27 12:39:45;;;;;;;2.27;1.70;;;;;;;13.87;65.02;97536.53;5097260;28;20663;-66
2021/10/27 12:42:12;;;;;;;2.53;1.50;;;;;;;13.80;64.55;97529.75;5115948;28;20176;-66
2021/10/27 12:44:52;;;;;;;1.90;1.70;;;;;;;13.90;64.44;97536.06;5113025;28;20231;-66
2021/10/27 12:47:22;;;;;;;1.80;1.30;;;;;;;13.97;63.82;97535.94;5096874;28;20608;-67
2021/10/27 12:50:02;;;;;;;2.77;1.40;;;;;;;13.94;63.81;97531.94;5114846;28;20164;-66
2021/10/27 12:52:33;;;;;;;2.60;1.60;;;;;;;13.94;63.11;97526.66;5114335;28;20168;-68
2021/10/27 12:55:14;;;;;;;2.73;1.50;;;;;;;13.97;63.78;97518.31;5114633;28;20195;-64
2021/10/27 12:58:01;;;;;;;3.27;2.10;;;;;;;13.97;65.09;97517.50;5095313;28;20595;-63
2021/10/27 13:00:59;;;;;;;3.50;3.17;;;;;;;13.96;65.93;97519.34;5114576;28;20172;-67
2021/10/27 13:11:41;;;;;;;4.50;3.60;;;;;;;14.56;64.68;97504.03;5114591;28;20223;-67
2021/10/27 13:14:15;;;;;;;5.43;3.57;;;;;;;14.69;64.67;97496.88;5114753;28;20199;-67
2021/10/27 13:19:48;;;;;;;4.93;4.17;;;;;;;14.87;63.04;97496.69;5115010;28;20228;-68
2021/10/27 13:30:08;;;;;;;3.23;2.77;;;;;;;14.59;64.36;97494.03;5113849;28;20320;-67
2021/10/27 13:32:37;;;;;;;4.73;3.10;;;;;;;14.83;63.10;97487.63;5095809;28;20321;-67
2021/10/27 13:35:05;;;;;;;2.93;2.70;;;;;;;14.76;63.65;97492.28;5113831;28;20574;-67
2021/10/27 13:37:31;;;;;;;4.67;3.30;;;;;;;14.75;63.14;97493.31;5113482;28;20229;-67
2021/10/27 13:39:58;;;;;;;5.23;3.33;;;;;;;14.86;63.35;97487.16;5113450;28;20499;-67
2021/10/27 13:45:35;;;;;;;4.00;2.80;;;;;;;14.94;62.85;97479.66;5111462;28;20352;-67
2021/10/27 13:48:00;;;;;;;4.13;2.93;;;;;;;14.86;63.54;97480.06;5105536;28;20207;-68
2021/10/27 14:07:04;;;;;;;4.33;3.60;;;;;;;15.02;63.65;97486.41;5113205;28;20206;-68
2021/10/27 15:22:20;;;;;;;1.90;1.80;;;;;;;14.30;64.42;97414.84;5111393;28;20263;-66
2021/10/27 15:35:55;;;;;;;1.63;1.53;;;;;;;14.09;64.73;97402.31;5110752;28;20745;-66
2021/10/27 15:52:12;;;;;;;2.40;2.10;;;;;;;13.86;66.10;97400.53;5116587;28;20671;-66
2021/10/27 15:54:35;;;;;;;3.40;2.13;;;;;;;13.60;66.72;97391.25;5115723;28;20211;-67
2021/10/27 15:57:01;;;;;;;2.57;2.00;;;;;;;13.72;66.68;97397.31;5117073;28;20160;-66
2021/10/27 15:59:28;;;;;;;2.03;1.67;;;;;;;13.61;67.00;97392.06;5116694;28;20168;-66
2021/10/27 16:01:53;;;;;;;2.00;1.90;;;;;;;13.45;67.41;97384.88;5096936;28;20176;-66
2021/10/27 16:04:19;;;;;;;2.50;1.80;;;;;;;13.51;67.36;97390.03;5115004;28;20196;-66
2021/10/27 16:06:55;;;;;;;1.53;1.43;;;;;;;13.50;67.56;97388.41;5115425;28;20199;-66
2021/10/27 16:09:25;;;;;;;1.67;1.53;;;;;;;13.49;67.61;97386.81;5097011;28;20207;-66
2021/10/27 16:11:50;;;;;;;2.10;1.83;;;;;;;13.59;67.09;97392.31;5083470;28;20180;-67
2021/10/27 16:14:20;;;;;;;2.30;2.10;;;;;;;13.49;67.80;97392.06;5115309;28;20576;-67
2021/10/27 16:16:46;;;;;;;2.87;2.20;;;;;;;13.31;68.61;97384.31;5096773;28;20209;-66
2021/10/27 16:19:11;;;;;;;2.73;2.30;;;;;;;13.24;69.17;97402.03;5115365;28;20184;-67
2021/10/27 16:21:37;;;;;;;2.50;2.30;;;;;;;13.14;69.70;97396.53;5115499;28;20175;-68
2021/10/27 16:24:02;;;;;;;4.03;2.20;;;;;;;13.03;70.09;97405.19;5115313;28;20284;-67
2021/10/27 16:26:29;;;;;;;2.10;1.90;;;;;;;13.13;70.14;97394.94;5097232;28;20183;-67
2021/10/27 16:28:56;;;;;;;2.67;2.30;;;;;;;12.98;70.70;97403.25;5115527;28;20221;-68